sensor_id;sensor_type;location;lat;lon;timestamp;P1;durP1;ratioP1;P2;durP2;ratioP2
9032;SDS011;4551;53.164;8.210;2022-07-30T00:00:39;5.33;;;3.33;;
9032;SDS011;4551;53.164;8.210;2022-07-30T00:03:07;5.23;;;3.20;;
9032;SDS011;4551;53.164;8.210;2022-07-30T00:05:36;3.07;;;2.87;;
9032;SDS011;4551;53.164;8.210;2022-07-30T00:08:04;4.33;;;3.00;;
9032;SDS011;4551;53.164;8.210;2022-07-30T00:10:32;3.20;;;2.93;;
9032;SDS011;4551;53.164;8.210;2022-07-30T00:13:02;3.77;;;2.93;;
9032;SDS011;4551;53.164;8.210;2022-07-30T00:15:30;6.17;;;3.00;;
9032;SDS011;4551;53.164;8.210;2022-07-30T00:17:58;3.43;;;3.10;;
9032;SDS011;4551;53.164;8.210;2022-07-30T00:20:27;4.57;;;3.17;;
9032;SDS011;4551;53.164;8.210;2022-07-30T00:22:57;3.40;;;3.10;;
9032;SDS011;4551;53.164;8.210;2022-07-30T00:25:29;3.67;;;3.30;;
9032;SDS011;4551;53.164;8.210;2022-07-30T00:27:57;4.83;;;3.00;;
9032;SDS011;4551;53.164;8.210;2022-07-30T00:30:27;4.33;;;3.43;;
9032;SDS011;4551;53.164;8.210;2022-07-30T00:32:55;4.40;;;3.07;;
9032;SDS011;4551;53.164;8.210;2022-07-30T00:35:24;4.07;;;3.07;;
9032;SDS011;4551;53.164;8.210;2022-07-30T00:37:53;3.13;;;2.93;;
9032;SDS011;4551;53.164;8.210;2022-07-30T00:40:21;3.63;;;3.10;;
9032;SDS011;4551;53.164;8.210;2022-07-30T00:42:50;3.70;;;3.30;;
9032;SDS011;4551;53.164;8.210;2022-07-30T00:45:18;4.77;;;3.23;;
9032;SDS011;4551;53.164;8.210;2022-07-30T00:47:48;6.17;;;4.03;;
9032;SDS011;4551;53.164;8.210;2022-07-30T00:50:16;5.07;;;3.70;;
9032;SDS011;4551;53.164;8.210;2022-07-30T00:52:47;3.70;;;3.17;;
9032;SDS011;4551;53.164;8.210;2022-07-30T00:55:15;4.87;;;3.43;;
9032;SDS011;4551;53.164;8.210;2022-07-30T00:57:43;7.10;;;6.23;;
9032;SDS011;4551;53.164;8.210;2022-07-30T01:00:13;6.17;;;5.40;;
9032;SDS011;4551;53.164;8.210;2022-07-30T01:02:43;4.23;;;3.20;;
9032;SDS011;4551;53.164;8.210;2022-07-30T01:05:13;3.13;;;2.87;;
9032;SDS011;4551;53.164;8.210;2022-07-30T01:07:41;4.13;;;3.17;;
9032;SDS011;4551;53.164;8.210;2022-07-30T01:10:12;7.43;;;3.23;;
9032;SDS011;4551;53.164;8.210;2022-07-30T01:12:42;4.17;;;3.30;;
9032;SDS011;4551;53.164;8.210;2022-07-30T01:15:12;2.93;;;2.73;;
9032;SDS011;4551;53.164;8.210;2022-07-30T01:17:40;3.30;;;3.00;;
9032;SDS011;4551;53.164;8.210;2022-07-30T01:20:10;4.17;;;3.20;;
9032;SDS011;4551;53.164;8.210;2022-07-30T01:22:43;3.53;;;3.23;;
9032;SDS011;4551;53.164;8.210;2022-07-30T01:25:20;4.67;;;2.97;;
9032;SDS011;4551;53.164;8.210;2022-07-30T01:27:57;3.30;;;3.00;;
9032;SDS011;4551;53.164;8.210;2022-07-30T01:30:29;4.77;;;3.30;;
9032;SDS011;4551;53.164;8.210;2022-07-30T01:33:01;3.73;;;3.10;;
9032;SDS011;4551;53.164;8.210;2022-07-30T01:35:31;4.10;;;2.93;;
9032;SDS011;4551;53.164;8.210;2022-07-30T01:38:01;3.17;;;2.93;;
9032;SDS011;4551;53.164;8.210;2022-07-30T01:40:31;3.40;;;3.10;;
9032;SDS011;4551;53.164;8.210;2022-07-30T01:43:01;4.17;;;3.10;;
9032;SDS011;4551;53.164;8.210;2022-07-30T01:45:33;5.40;;;3.70;;
9032;SDS011;4551;53.164;8.210;2022-07-30T01:48:10;3.83;;;3.37;;
9032;SDS011;4551;53.164;8.210;2022-07-30T01:50:41;3.50;;;3.20;;
9032;SDS011;4551;53.164;8.210;2022-07-30T01:53:13;4.57;;;3.73;;
9032;SDS011;4551;53.164;8.210;2022-07-30T01:55:43;3.50;;;3.17;;
9032;SDS011;4551;53.164;8.210;2022-07-30T01:58:17;5.20;;;3.50;;
9032;SDS011;4551;53.164;8.210;2022-07-30T02:00:47;3.53;;;3.23;;
9032;SDS011;4551;53.164;8.210;2022-07-30T02:03:17;4.47;;;3.53;;
9032;SDS011;4551;53.164;8.210;2022-07-30T02:05:48;3.80;;;3.07;;
9032;SDS011;4551;53.164;8.210;2022-07-30T02:08:22;3.90;;;3.50;;
9032;SDS011;4551;53.164;8.210;2022-07-30T02:10:57;5.33;;;3.50;;
9032;SDS011;4551;53.164;8.210;2022-07-30T02:13:32;3.73;;;3.43;;
9032;SDS011;4551;53.164;8.210;2022-07-30T02:16:05;4.17;;;3.80;;
9032;SDS011;4551;53.164;8.210;2022-07-30T02:18:42;4.27;;;3.50;;
9032;SDS011;4551;53.164;8.210;2022-07-30T02:21:24;3.40;;;3.13;;
9032;SDS011;4551;53.164;8.210;2022-07-30T02:24:02;3.97;;;3.03;;
9032;SDS011;4551;53.164;8.210;2022-07-30T02:26:34;4.10;;;3.70;;
9032;SDS011;4551;53.164;8.210;2022-07-30T02:29:06;3.50;;;3.20;;
9032;SDS011;4551;53.164;8.210;2022-07-30T02:31:37;4.27;;;3.47;;
9032;SDS011;4551;53.164;8.210;2022-07-30T02:34:07;3.90;;;3.50;;
9032;SDS011;4551;53.164;8.210;2022-07-30T02:36:37;4.10;;;3.17;;
9032;SDS011;4551;53.164;8.210;2022-07-30T02:39:08;5.10;;;3.50;;
9032;SDS011;4551;53.164;8.210;2022-07-30T02:41:38;3.50;;;3.20;;
9032;SDS011;4551;53.164;8.210;2022-07-30T02:44:16;4.57;;;3.60;;
9032;SDS011;4551;53.164;8.210;2022-07-30T02:46:46;3.80;;;3.50;;
9032;SDS011;4551;53.164;8.210;2022-07-30T02:49:16;3.83;;;3.53;;
9032;SDS011;4551;53.164;8.210;2022-07-30T02:51:48;4.37;;;3.43;;
9032;SDS011;4551;53.164;8.210;2022-07-30T02:54:18;4.03;;;3.63;;
9032;SDS011;4551;53.164;8.210;2022-07-30T02:56:48;4.03;;;3.63;;
9032;SDS011;4551;53.164;8.210;2022-07-30T02:59:19;5.67;;;3.50;;
9032;SDS011;4551;53.164;8.210;2022-07-30T03:01:50;5.33;;;3.63;;
9032;SDS011;4551;53.164;8.210;2022-07-30T03:04:20;5.53;;;3.93;;
9032;SDS011;4551;53.164;8.210;2022-07-30T03:06:48;4.47;;;4.07;;
9032;SDS011;4551;53.164;8.210;2022-07-30T03:09:17;5.17;;;3.70;;
9032;SDS011;4551;53.164;8.210;2022-07-30T03:11:47;4.03;;;3.67;;
9032;SDS011;4551;53.164;8.210;2022-07-30T03:14:17;6.33;;;3.90;;
9032;SDS011;4551;53.164;8.210;2022-07-30T03:16:51;6.03;;;4.23;;
9032;SDS011;4551;53.164;8.210;2022-07-30T03:19:23;4.63;;;4.23;;
9032;SDS011;4551;53.164;8.210;2022-07-30T03:21:55;4.63;;;4.23;;
9032;SDS011;4551;53.164;8.210;2022-07-30T03:24:25;6.07;;;4.53;;
9032;SDS011;4551;53.164;8.210;2022-07-30T03:26:55;5.17;;;4.67;;
9032;SDS011;4551;53.164;8.210;2022-07-30T03:29:27;6.53;;;5.20;;
9032;SDS011;4551;53.164;8.210;2022-07-30T03:31:57;6.33;;;5.13;;
9032;SDS011;4551;53.164;8.210;2022-07-30T03:34:29;7.13;;;6.03;;
9032;SDS011;4551;53.164;8.210;2022-07-30T03:37:00;10.57;;;9.57;;
9032;SDS011;4551;53.164;8.210;2022-07-30T03:39:32;11.53;;;9.20;;
9032;SDS011;4551;53.164;8.210;2022-07-30T03:42:01;7.07;;;6.30;;
9032;SDS011;4551;53.164;8.210;2022-07-30T03:44:31;6.07;;;5.47;;
9032;SDS011;4551;53.164;8.210;2022-07-30T03:47:01;4.97;;;4.50;;
9032;SDS011;4551;53.164;8.210;2022-07-30T03:49:32;9.70;;;5.20;;
9032;SDS011;4551;53.164;8.210;2022-07-30T03:52:00;5.07;;;4.50;;
9032;SDS011;4551;53.164;8.210;2022-07-30T03:54:30;5.13;;;4.60;;
9032;SDS011;4551;53.164;8.210;2022-07-30T03:56:59;5.70;;;4.63;;
9032;SDS011;4551;53.164;8.210;2022-07-30T03:59:29;5.97;;;4.90;;
9032;SDS011;4551;53.164;8.210;2022-07-30T04:01:59;5.40;;;4.53;;
9032;SDS011;4551;53.164;8.210;2022-07-30T04:04:32;5.40;;;4.87;;
9032;SDS011;4551;53.164;8.210;2022-07-30T04:07:00;5.17;;;4.57;;
9032;SDS011;4551;53.164;8.210;2022-07-30T04:09:29;4.50;;;4.20;;
9032;SDS011;4551;53.164;8.210;2022-07-30T04:11:57;5.73;;;4.57;;
9032;SDS011;4551;53.164;8.210;2022-07-30T04:14:25;6.60;;;5.17;;
9032;SDS011;4551;53.164;8.210;2022-07-30T04:16:57;5.13;;;4.73;;
9032;SDS011;4551;53.164;8.210;2022-07-30T04:19:31;6.83;;;4.63;;
9032;SDS011;4551;53.164;8.210;2022-07-30T04:22:03;4.90;;;4.53;;
9032;SDS011;4551;53.164;8.210;2022-07-30T04:24:32;6.10;;;4.23;;
9032;SDS011;4551;53.164;8.210;2022-07-30T04:27:03;4.70;;;4.07;;
9032;SDS011;4551;53.164;8.210;2022-07-30T04:29:32;6.23;;;5.30;;
9032;SDS011;4551;53.164;8.210;2022-07-30T04:32:02;6.60;;;4.43;;
9032;SDS011;4551;53.164;8.210;2022-07-30T04:34:31;5.70;;;5.10;;
9032;SDS011;4551;53.164;8.210;2022-07-30T04:37:00;6.40;;;5.10;;
9032;SDS011;4551;53.164;8.210;2022-07-30T04:39:29;6.80;;;5.10;;
9032;SDS011;4551;53.164;8.210;2022-07-30T04:41:57;5.20;;;4.77;;
9032;SDS011;4551;53.164;8.210;2022-07-30T04:44:25;6.20;;;5.60;;
9032;SDS011;4551;53.164;8.210;2022-07-30T04:46:53;5.30;;;4.80;;
9032;SDS011;4551;53.164;8.210;2022-07-30T04:49:23;6.30;;;5.80;;
9032;SDS011;4551;53.164;8.210;2022-07-30T04:51:51;5.57;;;5.00;;
9032;SDS011;4551;53.164;8.210;2022-07-30T04:54:20;5.63;;;5.10;;
9032;SDS011;4551;53.164;8.210;2022-07-30T04:56:52;6.57;;;5.43;;
9032;SDS011;4551;53.164;8.210;2022-07-30T04:59:22;7.30;;;6.33;;
9032;SDS011;4551;53.164;8.210;2022-07-30T05:01:55;6.17;;;5.50;;
9032;SDS011;4551;53.164;8.210;2022-07-30T05:04:28;7.67;;;6.87;;
9032;SDS011;4551;53.164;8.210;2022-07-30T05:06:58;7.70;;;7.00;;
9032;SDS011;4551;53.164;8.210;2022-07-30T05:09:28;8.03;;;7.23;;
9032;SDS011;4551;53.164;8.210;2022-07-30T05:11:57;6.73;;;6.20;;
9032;SDS011;4551;53.164;8.210;2022-07-30T05:14:26;6.87;;;6.23;;
9032;SDS011;4551;53.164;8.210;2022-07-30T05:16:54;7.23;;;6.63;;
9032;SDS011;4551;53.164;8.210;2022-07-30T05:19:23;7.97;;;7.17;;
9032;SDS011;4551;53.164;8.210;2022-07-30T05:21:53;8.73;;;7.40;;
9032;SDS011;4551;53.164;8.210;2022-07-30T05:24:21;10.93;;;7.67;;
9032;SDS011;4551;53.164;8.210;2022-07-30T05:26:50;8.80;;;7.87;;
9032;SDS011;4551;53.164;8.210;2022-07-30T05:29:18;7.97;;;7.27;;
9032;SDS011;4551;53.164;8.210;2022-07-30T05:31:46;8.53;;;7.83;;
9032;SDS011;4551;53.164;8.210;2022-07-30T05:34:15;8.40;;;7.57;;
9032;SDS011;4551;53.164;8.210;2022-07-30T05:36:43;8.90;;;7.50;;
9032;SDS011;4551;53.164;8.210;2022-07-30T05:39:16;8.07;;;7.27;;
9032;SDS011;4551;53.164;8.210;2022-07-30T05:41:44;8.83;;;7.97;;
9032;SDS011;4551;53.164;8.210;2022-07-30T05:44:13;8.30;;;7.50;;
9032;SDS011;4551;53.164;8.210;2022-07-30T05:46:49;7.97;;;7.07;;
9032;SDS011;4551;53.164;8.210;2022-07-30T05:49:20;10.03;;;7.50;;
9032;SDS011;4551;53.164;8.210;2022-07-30T05:51:48;8.10;;;7.30;;
9032;SDS011;4551;53.164;8.210;2022-07-30T05:54:18;7.73;;;7.00;;
9032;SDS011;4551;53.164;8.210;2022-07-30T05:56:50;7.97;;;6.83;;
9032;SDS011;4551;53.164;8.210;2022-07-30T05:59:18;9.03;;;7.43;;
9032;SDS011;4551;53.164;8.210;2022-07-30T06:01:47;8.10;;;7.20;;
9032;SDS011;4551;53.164;8.210;2022-07-30T06:04:15;7.97;;;6.97;;
9032;SDS011;4551;53.164;8.210;2022-07-30T06:06:44;8.00;;;7.23;;
9032;SDS011;4551;53.164;8.210;2022-07-30T06:09:12;8.50;;;7.73;;
9032;SDS011;4551;53.164;8.210;2022-07-30T06:11:41;9.17;;;7.67;;
9032;SDS011;4551;53.164;8.210;2022-07-30T06:14:10;9.30;;;7.60;;
9032;SDS011;4551;53.164;8.210;2022-07-30T06:16:39;8.00;;;7.20;;
9032;SDS011;4551;53.164;8.210;2022-07-30T06:19:07;7.73;;;6.83;;
9032;SDS011;4551;53.164;8.210;2022-07-30T06:21:44;9.20;;;7.90;;
9032;SDS011;4551;53.164;8.210;2022-07-30T06:24:32;9.93;;;7.53;;
9032;SDS011;4551;53.164;8.210;2022-07-30T06:27:02;7.40;;;6.70;;
9032;SDS011;4551;53.164;8.210;2022-07-30T06:29:30;8.73;;;7.50;;
9032;SDS011;4551;53.164;8.210;2022-07-30T06:31:58;7.07;;;6.47;;
9032;SDS011;4551;53.164;8.210;2022-07-30T06:34:27;9.20;;;6.70;;
9032;SDS011;4551;53.164;8.210;2022-07-30T06:36:55;10.10;;;6.60;;
9032;SDS011;4551;53.164;8.210;2022-07-30T06:39:24;7.13;;;6.37;;
9032;SDS011;4551;53.164;8.210;2022-07-30T06:42:13;7.97;;;6.20;;
9032;SDS011;4551;53.164;8.210;2022-07-30T06:44:42;6.70;;;6.00;;
9032;SDS011;4551;53.164;8.210;2022-07-30T06:47:10;9.77;;;7.13;;
9032;SDS011;4551;53.164;8.210;2022-07-30T06:49:38;9.83;;;6.30;;
9032;SDS011;4551;53.164;8.210;2022-07-30T06:52:06;7.37;;;6.23;;
9032;SDS011;4551;53.164;8.210;2022-07-30T06:54:35;4.93;;;4.47;;
9032;SDS011;4551;53.164;8.210;2022-07-30T06:57:03;8.47;;;5.80;;
9032;SDS011;4551;53.164;8.210;2022-07-30T06:59:35;7.60;;;5.63;;
9032;SDS011;4551;53.164;8.210;2022-07-30T07:02:22;8.77;;;5.70;;
9032;SDS011;4551;53.164;8.210;2022-07-30T07:04:51;7.17;;;6.47;;
9032;SDS011;4551;53.164;8.210;2022-07-30T07:07:19;6.97;;;5.80;;
9032;SDS011;4551;53.164;8.210;2022-07-30T07:10:07;9.97;;;6.00;;
9032;SDS011;4551;53.164;8.210;2022-07-30T07:12:37;9.13;;;5.17;;
9032;SDS011;4551;53.164;8.210;2022-07-30T07:15:07;7.60;;;5.10;;
9032;SDS011;4551;53.164;8.210;2022-07-30T07:17:36;7.00;;;4.90;;
9032;SDS011;4551;53.164;8.210;2022-07-30T07:20:06;7.87;;;5.50;;
9032;SDS011;4551;53.164;8.210;2022-07-30T07:22:35;9.13;;;5.57;;
9032;SDS011;4551;53.164;8.210;2022-07-30T07:25:03;8.40;;;5.63;;
9032;SDS011;4551;53.164;8.210;2022-07-30T07:27:32;8.57;;;5.50;;
9032;SDS011;4551;53.164;8.210;2022-07-30T07:30:00;8.50;;;5.57;;
9032;SDS011;4551;53.164;8.210;2022-07-30T07:35:02;6.80;;;5.43;;
9032;SDS011;4551;53.164;8.210;2022-07-30T07:37:31;7.63;;;5.33;;
9032;SDS011;4551;53.164;8.210;2022-07-30T07:39:59;7.60;;;5.13;;
9032;SDS011;4551;53.164;8.210;2022-07-30T07:42:27;6.00;;;5.40;;
9032;SDS011;4551;53.164;8.210;2022-07-30T07:44:55;6.57;;;5.17;;
9032;SDS011;4551;53.164;8.210;2022-07-30T07:47:24;6.97;;;5.93;;
9032;SDS011;4551;53.164;8.210;2022-07-30T07:49:54;7.60;;;5.40;;
9032;SDS011;4551;53.164;8.210;2022-07-30T07:52:23;5.43;;;4.13;;
9032;SDS011;4551;53.164;8.210;2022-07-30T07:54:51;6.00;;;4.50;;
9032;SDS011;4551;53.164;8.210;2022-07-30T07:57:21;8.93;;;4.97;;
9032;SDS011;4551;53.164;8.210;2022-07-30T07:59:49;5.23;;;4.83;;
9032;SDS011;4551;53.164;8.210;2022-07-30T08:02:19;6.40;;;4.60;;
9032;SDS011;4551;53.164;8.210;2022-07-30T08:04:48;5.70;;;4.40;;
9032;SDS011;4551;53.164;8.210;2022-07-30T08:07:17;5.67;;;4.50;;
9032;SDS011;4551;53.164;8.210;2022-07-30T08:09:46;5.60;;;4.60;;
9032;SDS011;4551;53.164;8.210;2022-07-30T08:12:14;4.40;;;3.97;;
9032;SDS011;4551;53.164;8.210;2022-07-30T08:14:42;6.87;;;4.73;;
9032;SDS011;4551;53.164;8.210;2022-07-30T08:17:10;7.77;;;4.27;;
9032;SDS011;4551;53.164;8.210;2022-07-30T08:19:39;5.53;;;3.60;;
9032;SDS011;4551;53.164;8.210;2022-07-30T08:22:07;5.90;;;4.10;;
9032;SDS011;4551;53.164;8.210;2022-07-30T08:24:37;4.93;;;4.43;;
9032;SDS011;4551;53.164;8.210;2022-07-30T08:27:06;6.63;;;4.50;;
9032;SDS011;4551;53.164;8.210;2022-07-30T08:29:34;5.50;;;3.80;;
9032;SDS011;4551;53.164;8.210;2022-07-30T08:32:03;3.97;;;3.53;;
9032;SDS011;4551;53.164;8.210;2022-07-30T08:34:31;6.10;;;3.87;;
9032;SDS011;4551;53.164;8.210;2022-07-30T08:37:00;6.73;;;4.07;;
9032;SDS011;4551;53.164;8.210;2022-07-30T08:39:28;4.20;;;3.80;;
9032;SDS011;4551;53.164;8.210;2022-07-30T08:41:59;3.63;;;3.30;;
9032;SDS011;4551;53.164;8.210;2022-07-30T08:44:29;4.83;;;3.50;;
9032;SDS011;4551;53.164;8.210;2022-07-30T08:46:59;5.10;;;3.40;;
9032;SDS011;4551;53.164;8.210;2022-07-30T08:49:29;4.57;;;3.37;;
9032;SDS011;4551;53.164;8.210;2022-07-30T08:52:00;3.33;;;2.97;;
9032;SDS011;4551;53.164;8.210;2022-07-30T08:54:29;3.33;;;3.03;;
9032;SDS011;4551;53.164;8.210;2022-07-30T08:56:59;3.97;;;3.47;;
9032;SDS011;4551;53.164;8.210;2022-07-30T08:59:30;3.73;;;3.20;;
9032;SDS011;4551;53.164;8.210;2022-07-30T09:02:19;4.33;;;3.17;;
9032;SDS011;4551;53.164;8.210;2022-07-30T09:04:52;3.80;;;2.60;;
9032;SDS011;4551;53.164;8.210;2022-07-30T09:07:21;3.10;;;2.80;;
9032;SDS011;4551;53.164;8.210;2022-07-30T09:09:50;4.23;;;3.30;;
9032;SDS011;4551;53.164;8.210;2022-07-30T09:15:08;4.87;;;3.00;;
9032;SDS011;4551;53.164;8.210;2022-07-30T09:17:45;3.40;;;3.10;;
9032;SDS011;4551;53.164;8.210;2022-07-30T09:20:19;4.67;;;2.63;;
9032;SDS011;4551;53.164;8.210;2022-07-30T09:22:50;3.67;;;3.07;;
9032;SDS011;4551;53.164;8.210;2022-07-30T09:25:33;3.20;;;2.90;;
9032;SDS011;4551;53.164;8.210;2022-07-30T09:28:04;4.37;;;3.00;;
9032;SDS011;4551;53.164;8.210;2022-07-30T09:30:43;3.97;;;2.87;;
9032;SDS011;4551;53.164;8.210;2022-07-30T09:33:13;7.60;;;2.90;;
9032;SDS011;4551;53.164;8.210;2022-07-30T09:35:43;4.67;;;3.10;;
9032;SDS011;4551;53.164;8.210;2022-07-30T09:38:11;2.83;;;2.63;;
9032;SDS011;4551;53.164;8.210;2022-07-30T09:40:39;3.93;;;2.90;;
9032;SDS011;4551;53.164;8.210;2022-07-30T09:43:24;4.43;;;3.07;;
9032;SDS011;4551;53.164;8.210;2022-07-30T09:45:55;5.27;;;3.70;;
9032;SDS011;4551;53.164;8.210;2022-07-30T09:48:26;4.13;;;3.00;;
9032;SDS011;4551;53.164;8.210;2022-07-30T09:50:55;4.63;;;3.10;;
9032;SDS011;4551;53.164;8.210;2022-07-30T09:53:23;4.77;;;3.07;;
9032;SDS011;4551;53.164;8.210;2022-07-30T09:55:51;3.80;;;3.00;;
9032;SDS011;4551;53.164;8.210;2022-07-30T09:58:20;3.90;;;2.83;;
9032;SDS011;4551;53.164;8.210;2022-07-30T10:00:56;3.17;;;2.87;;
9032;SDS011;4551;53.164;8.210;2022-07-30T10:03:26;4.17;;;2.87;;
9032;SDS011;4551;53.164;8.210;2022-07-30T10:06:07;3.10;;;2.90;;
9032;SDS011;4551;53.164;8.210;2022-07-30T10:08:38;2.80;;;2.50;;
9032;SDS011;4551;53.164;8.210;2022-07-30T10:11:12;5.23;;;3.00;;
9032;SDS011;4551;53.164;8.210;2022-07-30T10:13:47;3.93;;;2.97;;
9032;SDS011;4551;53.164;8.210;2022-07-30T10:16:20;4.07;;;2.83;;
9032;SDS011;4551;53.164;8.210;2022-07-30T10:18:49;2.93;;;2.73;;
9032;SDS011;4551;53.164;8.210;2022-07-30T10:21:18;2.90;;;2.63;;
9032;SDS011;4551;53.164;8.210;2022-07-30T10:23:51;3.13;;;2.93;;
9032;SDS011;4551;53.164;8.210;2022-07-30T10:26:20;3.37;;;3.07;;
9032;SDS011;4551;53.164;8.210;2022-07-30T10:28:49;3.47;;;3.00;;
9032;SDS011;4551;53.164;8.210;2022-07-30T10:31:20;4.03;;;2.90;;
9032;SDS011;4551;53.164;8.210;2022-07-30T10:34:08;5.00;;;3.10;;
9032;SDS011;4551;53.164;8.210;2022-07-30T10:36:39;3.03;;;2.83;;
9032;SDS011;4551;53.164;8.210;2022-07-30T10:39:09;4.57;;;3.00;;
9032;SDS011;4551;53.164;8.210;2022-07-30T10:41:46;4.23;;;2.90;;
9032;SDS011;4551;53.164;8.210;2022-07-30T10:47:18;2.77;;;2.63;;
9032;SDS011;4551;53.164;8.210;2022-07-30T10:50:09;3.20;;;2.90;;
9032;SDS011;4551;53.164;8.210;2022-07-30T10:52:41;5.00;;;3.47;;
9032;SDS011;4551;53.164;8.210;2022-07-30T10:55:16;3.50;;;2.43;;
9032;SDS011;4551;53.164;8.210;2022-07-30T10:58:03;2.37;;;2.20;;
9032;SDS011;4551;53.164;8.210;2022-07-30T11:00:33;3.53;;;2.87;;
9032;SDS011;4551;53.164;8.210;2022-07-30T11:03:13;4.83;;;2.90;;
9032;SDS011;4551;53.164;8.210;2022-07-30T11:05:44;3.40;;;3.10;;
9032;SDS011;4551;53.164;8.210;2022-07-30T11:08:35;4.17;;;2.87;;
9032;SDS011;4551;53.164;8.210;2022-07-30T11:17:57;3.93;;;3.23;;
9032;SDS011;4551;53.164;8.210;2022-07-30T11:20:31;2.73;;;2.53;;
9032;SDS011;4551;53.164;8.210;2022-07-30T11:23:10;3.23;;;2.70;;
9032;SDS011;4551;53.164;8.210;2022-07-30T11:26:04;3.00;;;2.70;;
9032;SDS011;4551;53.164;8.210;2022-07-30T11:28:41;2.60;;;2.30;;
9032;SDS011;4551;53.164;8.210;2022-07-30T11:31:26;4.00;;;3.03;;
9032;SDS011;4551;53.164;8.210;2022-07-30T11:34:26;3.03;;;2.83;;
9032;SDS011;4551;53.164;8.210;2022-07-30T11:37:10;3.70;;;2.90;;
9032;SDS011;4551;53.164;8.210;2022-07-30T11:40:07;3.73;;;2.70;;
9032;SDS011;4551;53.164;8.210;2022-07-30T11:42:37;3.77;;;2.77;;
9032;SDS011;4551;53.164;8.210;2022-07-30T11:45:23;3.67;;;3.23;;
9032;SDS011;4551;53.164;8.210;2022-07-30T11:47:58;3.20;;;2.90;;
9032;SDS011;4551;53.164;8.210;2022-07-30T11:50:28;5.33;;;3.30;;
9032;SDS011;4551;53.164;8.210;2022-07-30T11:53:00;2.70;;;2.50;;
9032;SDS011;4551;53.164;8.210;2022-07-30T11:55:30;5.70;;;2.70;;
9032;SDS011;4551;53.164;8.210;2022-07-30T11:58:01;2.93;;;2.73;;
9032;SDS011;4551;53.164;8.210;2022-07-30T12:00:35;3.03;;;2.50;;
9032;SDS011;4551;53.164;8.210;2022-07-30T12:03:11;2.53;;;2.33;;
9032;SDS011;4551;53.164;8.210;2022-07-30T12:05:41;3.33;;;2.90;;
9032;SDS011;4551;53.164;8.210;2022-07-30T12:08:18;3.47;;;3.07;;
9032;SDS011;4551;53.164;8.210;2022-07-30T12:11:01;5.63;;;3.13;;
9032;SDS011;4551;53.164;8.210;2022-07-30T12:13:30;3.93;;;3.27;;
9032;SDS011;4551;53.164;8.210;2022-07-30T12:16:10;4.30;;;2.90;;
9032;SDS011;4551;53.164;8.210;2022-07-30T12:18:39;6.13;;;3.00;;
9032;SDS011;4551;53.164;8.210;2022-07-30T12:21:10;3.20;;;2.90;;
9032;SDS011;4551;53.164;8.210;2022-07-30T12:23:51;4.70;;;3.03;;
9032;SDS011;4551;53.164;8.210;2022-07-30T12:26:20;2.97;;;2.77;;
9032;SDS011;4551;53.164;8.210;2022-07-30T12:28:52;5.63;;;3.20;;
9032;SDS011;4551;53.164;8.210;2022-07-30T12:31:21;3.40;;;3.10;;
9032;SDS011;4551;53.164;8.210;2022-07-30T12:33:50;3.77;;;3.20;;
9032;SDS011;4551;53.164;8.210;2022-07-30T12:36:25;5.50;;;3.47;;
9032;SDS011;4551;53.164;8.210;2022-07-30T12:38:56;5.00;;;3.10;;
9032;SDS011;4551;53.164;8.210;2022-07-30T12:41:39;5.50;;;3.47;;
9032;SDS011;4551;53.164;8.210;2022-07-30T12:44:08;5.00;;;3.20;;
9032;SDS011;4551;53.164;8.210;2022-07-30T12:46:37;3.47;;;2.80;;
9032;SDS011;4551;53.164;8.210;2022-07-30T12:49:07;3.10;;;2.90;;
9032;SDS011;4551;53.164;8.210;2022-07-30T12:51:49;4.87;;;3.57;;
9032;SDS011;4551;53.164;8.210;2022-07-30T12:54:27;5.43;;;3.17;;
9032;SDS011;4551;53.164;8.210;2022-07-30T12:56:56;3.67;;;2.90;;
9032;SDS011;4551;53.164;8.210;2022-07-30T12:59:26;5.03;;;2.70;;
9032;SDS011;4551;53.164;8.210;2022-07-30T13:01:56;4.90;;;3.20;;
9032;SDS011;4551;53.164;8.210;2022-07-30T13:04:26;3.30;;;3.00;;
9032;SDS011;4551;53.164;8.210;2022-07-30T13:07:04;5.07;;;2.93;;
9032;SDS011;4551;53.164;8.210;2022-07-30T13:09:36;7.43;;;3.20;;
9032;SDS011;4551;53.164;8.210;2022-07-30T13:12:05;4.90;;;3.30;;
9032;SDS011;4551;53.164;8.210;2022-07-30T13:14:35;5.50;;;3.40;;
9032;SDS011;4551;53.164;8.210;2022-07-30T13:17:03;4.80;;;2.80;;
9032;SDS011;4551;53.164;8.210;2022-07-30T13:19:32;6.63;;;3.07;;
9032;SDS011;4551;53.164;8.210;2022-07-30T13:22:00;5.37;;;3.30;;
9032;SDS011;4551;53.164;8.210;2022-07-30T13:24:28;4.73;;;3.00;;
9032;SDS011;4551;53.164;8.210;2022-07-30T13:27:00;3.67;;;3.20;;
9032;SDS011;4551;53.164;8.210;2022-07-30T13:29:29;3.27;;;2.97;;
9032;SDS011;4551;53.164;8.210;2022-07-30T13:31:57;3.33;;;2.70;;
9032;SDS011;4551;53.164;8.210;2022-07-30T13:34:25;5.77;;;3.10;;
9032;SDS011;4551;53.164;8.210;2022-07-30T13:36:53;3.27;;;3.00;;
9032;SDS011;4551;53.164;8.210;2022-07-30T13:39:22;3.50;;;3.13;;
9032;SDS011;4551;53.164;8.210;2022-07-30T13:41:50;5.23;;;3.07;;
9032;SDS011;4551;53.164;8.210;2022-07-30T13:44:20;4.17;;;3.17;;
9032;SDS011;4551;53.164;8.210;2022-07-30T13:46:48;3.90;;;2.87;;
9032;SDS011;4551;53.164;8.210;2022-07-30T13:49:16;4.80;;;3.23;;
9032;SDS011;4551;53.164;8.210;2022-07-30T13:51:45;4.60;;;3.20;;
9032;SDS011;4551;53.164;8.210;2022-07-30T13:54:13;7.17;;;3.10;;
9032;SDS011;4551;53.164;8.210;2022-07-30T13:56:42;3.70;;;3.40;;
9032;SDS011;4551;53.164;8.210;2022-07-30T13:59:10;4.57;;;3.17;;
9032;SDS011;4551;53.164;8.210;2022-07-30T14:01:40;3.57;;;3.27;;
9032;SDS011;4551;53.164;8.210;2022-07-30T14:04:08;3.83;;;3.20;;
9032;SDS011;4551;53.164;8.210;2022-07-30T14:06:36;5.43;;;3.27;;
9032;SDS011;4551;53.164;8.210;2022-07-30T14:09:04;4.37;;;3.20;;
9032;SDS011;4551;53.164;8.210;2022-07-30T14:11:33;3.80;;;3.10;;
9032;SDS011;4551;53.164;8.210;2022-07-30T14:14:01;7.67;;;3.20;;
9032;SDS011;4551;53.164;8.210;2022-07-30T14:16:29;4.47;;;3.13;;
9032;SDS011;4551;53.164;8.210;2022-07-30T14:19:12;4.70;;;3.33;;
9032;SDS011;4551;53.164;8.210;2022-07-30T14:21:50;4.13;;;3.17;;
9032;SDS011;4551;53.164;8.210;2022-07-30T14:24:19;6.03;;;3.53;;
9032;SDS011;4551;53.164;8.210;2022-07-30T14:26:48;5.87;;;4.00;;
9032;SDS011;4551;53.164;8.210;2022-07-30T14:29:23;6.20;;;3.37;;
9032;SDS011;4551;53.164;8.210;2022-07-30T14:31:51;3.73;;;2.90;;
9032;SDS011;4551;53.164;8.210;2022-07-30T14:34:21;5.60;;;3.47;;
9032;SDS011;4551;53.164;8.210;2022-07-30T14:36:49;3.77;;;3.37;;
9032;SDS011;4551;53.164;8.210;2022-07-30T14:39:18;3.63;;;3.33;;
9032;SDS011;4551;53.164;8.210;2022-07-30T14:41:46;4.97;;;3.67;;
9032;SDS011;4551;53.164;8.210;2022-07-30T14:44:21;6.17;;;3.53;;
9032;SDS011;4551;53.164;8.210;2022-07-30T14:46:49;6.33;;;3.50;;
9032;SDS011;4551;53.164;8.210;2022-07-30T14:49:18;5.40;;;3.67;;
9032;SDS011;4551;53.164;8.210;2022-07-30T14:51:49;5.20;;;3.43;;
9032;SDS011;4551;53.164;8.210;2022-07-30T14:54:18;5.27;;;4.00;;
9032;SDS011;4551;53.164;8.210;2022-07-30T14:56:47;4.57;;;3.23;;
9032;SDS011;4551;53.164;8.210;2022-07-30T14:59:23;4.13;;;3.43;;
9032;SDS011;4551;53.164;8.210;2022-07-30T15:01:51;3.47;;;3.00;;
9032;SDS011;4551;53.164;8.210;2022-07-30T15:04:22;3.80;;;3.50;;
9032;SDS011;4551;53.164;8.210;2022-07-30T15:06:50;4.30;;;3.07;;
9032;SDS011;4551;53.164;8.210;2022-07-30T15:09:19;4.13;;;3.40;;
9032;SDS011;4551;53.164;8.210;2022-07-30T15:11:47;3.97;;;3.57;;
9032;SDS011;4551;53.164;8.210;2022-07-30T15:14:34;3.93;;;3.27;;
9032;SDS011;4551;53.164;8.210;2022-07-30T15:17:03;5.13;;;3.70;;
9032;SDS011;4551;53.164;8.210;2022-07-30T15:19:33;4.57;;;3.40;;
9032;SDS011;4551;53.164;8.210;2022-07-30T15:22:01;4.93;;;3.10;;
9032;SDS011;4551;53.164;8.210;2022-07-30T15:24:31;4.00;;;3.37;;
9032;SDS011;4551;53.164;8.210;2022-07-30T15:26:59;6.43;;;3.50;;
9032;SDS011;4551;53.164;8.210;2022-07-30T15:29:27;6.00;;;3.43;;
9032;SDS011;4551;53.164;8.210;2022-07-30T15:31:56;5.00;;;3.40;;
9032;SDS011;4551;53.164;8.210;2022-07-30T15:34:26;4.87;;;3.93;;
9032;SDS011;4551;53.164;8.210;2022-07-30T15:37:01;5.60;;;3.57;;
9032;SDS011;4551;53.164;8.210;2022-07-30T15:39:31;4.47;;;3.70;;
9032;SDS011;4551;53.164;8.210;2022-07-30T15:41:59;7.07;;;4.03;;
9032;SDS011;4551;53.164;8.210;2022-07-30T15:44:28;4.43;;;3.90;;
9032;SDS011;4551;53.164;8.210;2022-07-30T15:46:56;4.27;;;3.43;;
9032;SDS011;4551;53.164;8.210;2022-07-30T15:49:25;13.90;;;4.10;;
9032;SDS011;4551;53.164;8.210;2022-07-30T15:51:54;6.10;;;4.33;;
9032;SDS011;4551;53.164;8.210;2022-07-30T15:54:26;7.47;;;4.63;;